TimeEST,TemperatureF,Dew PointF,Humidity,Sea Level PressureIn,VisibilityMPH,Wind Direction,Wind SpeedMPH,Gust SpeedMPH,PrecipitationIn,Events,Conditions,WindDirDegrees,DateUTC
12:53 AM,71.1,69.1,93,30.03,3.0,East,5.8,-,0.06,Rain,Light Rain,90,2012-12-09 05:53:00
1:11 AM,71.6,69.8,94,30.03,9.0,East,8.1,-,0.00,Rain,Light Rain,80,2012-12-09 06:11:00
1:18 AM,71.6,69.8,94,30.03,9.0,East,8.1,-,0.00,Rain,Light Rain,80,2012-12-09 06:18:00
1:26 AM,71.6,69.8,94,30.03,9.0,East,4.6,-,0.00,Rain,Light Rain,100,2012-12-09 06:26:00
1:44 AM,69.8,68.0,94,30.04,2.5,WSW,8.1,16.1,0.06,Rain,Heavy Rain,250,2012-12-09 06:44:00
1:50 AM,69.8,66.2,88,30.04,2.0,West,13.8,19.6,0.10,Rain,Heavy Rain,270,2012-12-09 06:50:00
1:53 AM,69.1,66.9,93,30.04,2.5,West,10.4,19.6,0.12,Rain,Heavy Rain,270,2012-12-09 06:53:00
2:10 AM,69.8,66.2,88,30.04,6.0,WNW,8.1,-,0.05,Rain,Light Rain,290,2012-12-09 07:10:00
2:53 AM,69.1,68.0,96,30.04,10.0,West,4.6,-,0.07,,Overcast,280,2012-12-09 07:53:00
3:39 AM,69.8,66.2,88,30.03,10.0,Calm,Calm,-,0.00,,Overcast,0,2012-12-09 08:39:00
3:53 AM,68.0,66.9,96,30.02,10.0,Calm,Calm,-,0.00,,Mostly Cloudy,0,2012-12-09 08:53:00
4:49 AM,66.2,66.2,100,30.03,10.0,Calm,Calm,-,N/A,,Mostly Cloudy,0,2012-12-09 09:49:00
4:53 AM,68.0,66.0,93,30.03,10.0,Calm,Calm,-,N/A,,Mostly Cloudy,0,2012-12-09 09:53:00
5:01 AM,66.2,66.2,100,30.03,10.0,Calm,Calm,-,N/A,,Scattered Clouds,0,2012-12-09 10:01:00
5:53 AM,66.9,64.9,93,30.04,10.0,Calm,Calm,-,N/A,,Mostly Cloudy,0,2012-12-09 10:53:00
6:36 AM,66.2,64.4,94,30.05,10.0,Calm,Calm,-,N/A,,Scattered Clouds,0,2012-12-09 11:36:00
6:43 AM,66.2,64.4,94,30.06,1.8,Calm,Calm,-,N/A,,Partly Cloudy,0,2012-12-09 11:43:00
6:51 AM,66.2,64.4,94,30.06,3.0,Calm,Calm,-,N/A,,Clear,0,2012-12-09 11:51:00
6:53 AM,66.0,64.0,93,30.06,7.0,Calm,Calm,-,N/A,,Partly Cloudy,0,2012-12-09 11:53:00
7:53 AM,69.1,68.0,96,30.08,10.0,Calm,Calm,-,N/A,,Clear,0,2012-12-09 12:53:00
8:53 AM,73.9,69.1,85,30.09,10.0,SE,3.5,-,N/A,,Clear,140,2012-12-09 13:53:00
9:53 AM,77.0,70.0,79,30.10,10.0,WSW,3.5,-,N/A,,Clear,240,2012-12-09 14:53:00
10:53 AM,79.0,70.0,74,30.09,10.0,WSW,4.6,-,N/A,,Scattered Clouds,240,2012-12-09 15:53:00
11:53 AM,80.1,70.0,71,30.07,10.0,WSW,3.5,-,N/A,,Mostly Cloudy,240,2012-12-09 16:53:00
12:53 PM,78.1,71.1,79,30.03,10.0,ENE,4.6,-,N/A,,Mostly Cloudy,70,2012-12-09 17:53:00
1:53 PM,78.1,71.1,79,30.01,10.0,East,4.6,-,N/A,,Scattered Clouds,100,2012-12-09 18:53:00
2:53 PM,79.0,71.1,77,30.01,10.0,East,9.2,-,N/A,,Mostly Cloudy,100,2012-12-09 19:53:00
3:53 PM,78.1,71.1,79,30.01,10.0,ESE,5.8,-,N/A,,Scattered Clouds,110,2012-12-09 20:53:00
4:39 PM,78.8,71.6,78,30.02,10.0,East,6.9,-,N/A,,Mostly Cloudy,90,2012-12-09 21:39:00
4:50 PM,77.0,71.6,83,30.02,10.0,East,4.6,-,N/A,,Scattered Clouds,90,2012-12-09 21:50:00
4:53 PM,77.0,71.1,82,30.02,10.0,East,5.8,-,N/A,,Scattered Clouds,90,2012-12-09 21:53:00
5:53 PM,75.0,71.1,87,30.03,10.0,SE,4.6,-,N/A,,Partly Cloudy,130,2012-12-09 22:53:00
6:53 PM,73.0,71.1,93,30.04,10.0,SE,4.6,-,N/A,,Clear,130,2012-12-09 23:53:00
7:53 PM,71.1,70.0,96,30.04,9.0,East,4.6,-,N/A,,Clear,100,2012-12-10 00:53:00
8:53 PM,72.0,70.0,93,30.04,9.0,East,4.6,-,N/A,,Clear,100,2012-12-10 01:53:00
9:53 PM,71.1,69.1,93,30.05,8.0,Calm,Calm,-,N/A,,Partly Cloudy,0,2012-12-10 02:53:00
10:42 PM,68.0,66.2,94,30.04,1.8,Calm,Calm,-,N/A,,Partly Cloudy,0,2012-12-10 03:42:00
10:53 PM,68.0,66.9,96,30.04,0.8,Calm,Calm,-,N/A,,Clear,0,2012-12-10 03:53:00
11:01 PM,68.0,66.2,94,30.04,2.0,Calm,Calm,-,N/A,,Clear,0,2012-12-10 04:01:00
11:09 PM,69.8,68.0,94,30.04,7.0,Calm,Calm,-,N/A,,Partly Cloudy,0,2012-12-10 04:09:00
11:53 PM,70.0,68.0,93,30.03,10.0,SSE,4.6,-,N/A,,Partly Cloudy,150,2012-12-10 04:53:00